TSC880 CYXU-MMUN
Flight info
| Callsign | TSC880 |
|---|---|
| Flight time | 3h 22m |
| Altitude | 35000 |
| Route | FINGL DCT RITZS DCT CLNTN/N0446F340 DCT ASERY Q39 CLAWD/N0450F350 DCT SLOJO/N0454F340 Q75 ENEME/N0453F360 DCT CTY DCT KNOST M219 NAVVL L465 SHARQ UM463 WALKY UB879 NOSAT NOSAT1B |
| Aircraft | A321/M-SDE3FGHIRWY/LB1 |
Departure
| Time | 2026-04-26 22:42 |
|---|---|
| Airport | London International Airport (CYXU) |
Arrival
| Time | 2026-04-27 02:05 |
|---|---|
| Airport | Cancún International Airport (MMUN) |
| Time | Latitude | Longitude | Altitude | Speed | Heading |
|---|---|---|---|---|---|
| 2026-04-26 22:27 | 43.02907 | -81.14819 | 909 ft | 0 kts | 259° |
| 2026-04-26 22:34 | 43.02908 | -81.14814 | 908 ft | 3 kts | 259° |
| 2026-04-26 22:34 | 43.02912 | -81.14788 | 908 ft | 3 kts | 271° |
| 2026-04-26 22:34 | 43.02911 | -81.14762 | 908 ft | 3 kts | 279° |
| 2026-04-26 22:34 | 43.02905 | -81.14736 | 908 ft | 3 kts | 310° |
| 2026-04-26 22:35 | 43.02901 | -81.14731 | 908 ft | 0 kts | 311° |
| 2026-04-26 22:36 | 43.02906 | -81.14735 | 908 ft | 2 kts | 324° |
| 2026-04-26 22:36 | 43.02915 | -81.14745 | 911 ft | 3 kts | 321° |
| 2026-04-26 22:36 | 43.02953 | -81.14788 | 908 ft | 8 kts | 319° |
| 2026-04-26 22:36 | 43.02993 | -81.14837 | 908 ft | 9 kts | 316° |
| 2026-04-26 22:37 | 43.03065 | -81.14924 | 908 ft | 18 kts | 319° |
| 2026-04-26 22:37 | 43.03179 | -81.15061 | 908 ft | 17 kts | 318° |
| 2026-04-26 22:37 | 43.03265 | -81.15165 | 908 ft | 16 kts | 318° |
| 2026-04-26 22:37 | 43.03343 | -81.15259 | 910 ft | 14 kts | 319° |
| 2026-04-26 22:38 | 43.03414 | -81.15343 | 910 ft | 13 kts | 319° |
| 2026-04-26 22:38 | 43.03481 | -81.15424 | 908 ft | 13 kts | 318° |
| 2026-04-26 22:38 | 43.03547 | -81.15503 | 908 ft | 12 kts | 319° |
| 2026-04-26 22:38 | 43.03606 | -81.15574 | 908 ft | 12 kts | 319° |
| 2026-04-26 22:39 | 43.03692 | -81.15678 | 908 ft | 21 kts | 318° |
| 2026-04-26 22:39 | 43.03812 | -81.15822 | 907 ft | 23 kts | 318° |
| 2026-04-26 22:39 | 43.03926 | -81.15958 | 908 ft | 20 kts | 319° |
| 2026-04-26 22:39 | 43.04032 | -81.16010 | 909 ft | 7 kts | 1° |
| 2026-04-26 22:40 | 43.04033 | -81.16010 | 909 ft | 0 kts | 1° |
| 2026-04-26 22:41 | 43.04051 | -81.16009 | 909 ft | 8 kts | 4° |
| 2026-04-26 22:41 | 43.04129 | -81.15960 | 910 ft | 13 kts | 53° |
| 2026-04-26 22:41 | 43.04110 | -81.15861 | 909 ft | 12 kts | 136° |
| 2026-04-26 22:42 | 43.04102 | -81.15852 | 909 ft | 0 kts | 140° |
| 2026-04-26 22:42 | 43.03907 | -81.15618 | 907 ft | 82 kts | 138° |
| 2026-04-26 22:42 | 43.03289 | -81.14872 | 910 ft | 152 kts | 138° |
| 2026-04-26 22:42 | 43.02428 | -81.13863 | 1575 ft | 161 kts | 137° |
| 2026-04-26 22:43 | 43.01526 | -81.12820 | 2238 ft | 179 kts | 135° |
| 2026-04-26 22:43 | 43.00534 | -81.11638 | 2402 ft | 200 kts | 136° |
| 2026-04-26 22:43 | 42.99225 | -81.10757 | 2542 ft | 227 kts | 169° |
| 2026-04-26 22:43 | 42.97597 | -81.11178 | 2708 ft | 257 kts | 208° |
| 2026-04-26 22:44 | 42.96036 | -81.12522 | 3269 ft | 270 kts | 214° |
| 2026-04-26 22:44 | 42.94493 | -81.14025 | 4028 ft | 275 kts | 216° |
| 2026-04-26 22:44 | 42.92939 | -81.15587 | 4782 ft | 280 kts | 216° |
| 2026-04-26 22:44 | 42.91355 | -81.17176 | 5484 ft | 286 kts | 217° |
| 2026-04-26 22:45 | 42.89732 | -81.18785 | 6201 ft | 290 kts | 218° |
| 2026-04-26 22:45 | 42.88081 | -81.20399 | 6897 ft | 294 kts | 218° |
| 2026-04-26 22:45 | 42.86400 | -81.22024 | 7572 ft | 298 kts | 218° |
| 2026-04-26 22:45 | 42.84699 | -81.23655 | 8265 ft | 301 kts | 218° |
| 2026-04-26 22:46 | 42.82970 | -81.25307 | 8941 ft | 305 kts | 218° |
| 2026-04-26 22:46 | 42.81227 | -81.26975 | 9639 ft | 308 kts | 219° |
| 2026-04-26 22:46 | 42.79460 | -81.28663 | 10233 ft | 315 kts | 219° |
| 2026-04-26 22:46 | 42.77590 | -81.30426 | 10366 ft | 338 kts | 215° |
| 2026-04-26 22:47 | 42.75426 | -81.31946 | 10488 ft | 363 kts | 204° |
| 2026-04-26 22:47 | 42.72956 | -81.32949 | 10774 ft | 379 kts | 192° |
| 2026-04-26 22:47 | 42.70328 | -81.33567 | 11328 ft | 384 kts | 191° |
| 2026-04-26 22:47 | 42.67691 | -81.34201 | 11949 ft | 387 kts | 192° |
| 2026-04-26 22:48 | 42.65035 | -81.34858 | 12578 ft | 390 kts | 192° |
| 2026-04-26 22:48 | 42.62355 | -81.35531 | 13215 ft | 393 kts | 192° |
| 2026-04-26 22:48 | 42.59657 | -81.36212 | 13851 ft | 396 kts | 192° |
| 2026-04-26 22:48 | 42.56944 | -81.36893 | 14429 ft | 399 kts | 192° |
| 2026-04-26 22:49 | 42.54209 | -81.37567 | 14990 ft | 401 kts | 192° |
| 2026-04-26 22:49 | 42.51447 | -81.38234 | 15561 ft | 403 kts | 192° |
| 2026-04-26 22:49 | 42.48678 | -81.38901 | 16113 ft | 405 kts | 192° |
| 2026-04-26 22:49 | 42.45893 | -81.39578 | 16691 ft | 408 kts | 192° |
| 2026-04-26 22:50 | 42.43096 | -81.40258 | 17231 ft | 410 kts | 192° |
| 2026-04-26 22:50 | 42.40275 | -81.40945 | 17769 ft | 412 kts | 192° |
| 2026-04-26 22:50 | 42.37454 | -81.41634 | 18299 ft | 414 kts | 192° |
| 2026-04-26 22:50 | 42.34604 | -81.42329 | 18775 ft | 417 kts | 192° |
| 2026-04-26 22:51 | 42.31740 | -81.43027 | 19202 ft | 420 kts | 192° |
| 2026-04-26 22:51 | 42.28849 | -81.43728 | 19628 ft | 423 kts | 192° |
| 2026-04-26 22:51 | 42.25959 | -81.44424 | 20056 ft | 425 kts | 192° |
| 2026-04-26 22:51 | 42.23025 | -81.45129 | 20479 ft | 428 kts | 192° |
| 2026-04-26 22:52 | 42.20090 | -81.45837 | 20897 ft | 431 kts | 192° |
| 2026-04-26 22:52 | 42.17124 | -81.46556 | 21320 ft | 433 kts | 192° |
| 2026-04-26 22:52 | 42.14148 | -81.47279 | 21738 ft | 436 kts | 192° |
| 2026-04-26 22:52 | 42.11152 | -81.48007 | 22149 ft | 439 kts | 192° |
| 2026-04-26 22:53 | 42.08138 | -81.48738 | 22555 ft | 442 kts | 192° |
| 2026-04-26 22:53 | 42.05102 | -81.49473 | 22961 ft | 445 kts | 192° |
| 2026-04-26 22:53 | 42.02051 | -81.50211 | 23356 ft | 447 kts | 192° |
| 2026-04-26 22:53 | 41.98975 | -81.50954 | 23755 ft | 450 kts | 192° |
| 2026-04-26 22:54 | 41.95887 | -81.51696 | 24095 ft | 452 kts | 192° |
| 2026-04-26 22:54 | 41.92781 | -81.52440 | 24463 ft | 454 kts | 192° |
| 2026-04-26 22:54 | 41.89669 | -81.53183 | 24826 ft | 455 kts | 192° |
| 2026-04-26 22:54 | 41.87603 | -81.53676 | 25072 ft | 455 kts | 192° |
| 2026-04-26 22:55 | 41.83425 | -81.54670 | 25555 ft | 457 kts | 192° |
| 2026-04-26 22:55 | 41.81308 | -81.55175 | 25801 ft | 458 kts | 192° |
| 2026-04-26 22:55 | 41.77150 | -81.56169 | 26267 ft | 459 kts | 192° |
| 2026-04-26 22:55 | 41.73999 | -81.56919 | 26623 ft | 460 kts | 193° |
| 2026-04-26 22:56 | 41.71870 | -81.57426 | 26869 ft | 461 kts | 193° |
| 2026-04-26 22:56 | 41.68719 | -81.58176 | 27219 ft | 462 kts | 193° |
| 2026-04-26 22:56 | 41.65544 | -81.58935 | 27562 ft | 462 kts | 193° |
| 2026-04-26 22:56 | 41.62378 | -81.59688 | 27892 ft | 463 kts | 193° |
| 2026-04-26 22:57 | 41.59202 | -81.60440 | 28229 ft | 464 kts | 193° |
| 2026-04-26 22:57 | 41.56022 | -81.61192 | 28551 ft | 465 kts | 193° |
| 2026-04-26 22:57 | 41.52822 | -81.61950 | 28883 ft | 466 kts | 193° |
| 2026-04-26 22:57 | 41.49630 | -81.62706 | 29219 ft | 467 kts | 193° |
| 2026-04-26 22:58 | 41.46434 | -81.63461 | 29571 ft | 466 kts | 193° |
| 2026-04-26 22:58 | 41.43246 | -81.64217 | 30040 ft | 463 kts | 193° |
| 2026-04-26 22:58 | 41.40089 | -81.64963 | 30468 ft | 460 kts | 193° |
| 2026-04-26 22:58 | 41.36982 | -81.65697 | 30854 ft | 457 kts | 194° |
| 2026-04-26 22:59 | 41.33864 | -81.66432 | 31222 ft | 455 kts | 194° |
| 2026-04-26 22:59 | 41.30742 | -81.67165 | 31601 ft | 453 kts | 194° |
| 2026-04-26 22:59 | 41.27611 | -81.67897 | 31984 ft | 451 kts | 194° |
| 2026-04-26 22:59 | 41.24568 | -81.68605 | 32353 ft | 449 kts | 194° |
| 2026-04-26 23:00 | 41.21506 | -81.69316 | 32737 ft | 446 kts | 194° |
| 2026-04-26 23:00 | 41.18461 | -81.70028 | 33092 ft | 444 kts | 194° |
| 2026-04-26 23:00 | 41.15422 | -81.70742 | 33461 ft | 442 kts | 194° |
| 2026-04-26 23:00 | 41.12397 | -81.71455 | 33810 ft | 441 kts | 194° |
| 2026-04-26 23:01 | 41.09378 | -81.72166 | 34149 ft | 439 kts | 194° |
| 2026-04-26 23:01 | 41.06382 | -81.72869 | 34440 ft | 438 kts | 194° |
| 2026-04-26 23:01 | 41.03377 | -81.73516 | 34719 ft | 438 kts | 189° |
| 2026-04-26 23:01 | 41.00321 | -81.73636 | 34975 ft | 443 kts | 181° |
| 2026-04-26 23:02 | 40.97252 | -81.73097 | 35219 ft | 447 kts | 171° |
| 2026-04-26 23:02 | 40.94227 | -81.72053 | 35446 ft | 449 kts | 169° |
| 2026-04-26 23:02 | 40.91208 | -81.70991 | 35673 ft | 448 kts | 170° |
| 2026-04-26 23:02 | 40.88196 | -81.69944 | 35899 ft | 448 kts | 170° |
| 2026-04-26 23:03 | 40.85182 | -81.68904 | 36114 ft | 448 kts | 170° |
| 2026-04-26 23:03 | 40.79159 | -81.66831 | 36182 ft | 446 kts | 170° |
| 2026-04-26 23:04 | 40.73157 | -81.64762 | 36179 ft | 446 kts | 170° |
| 2026-04-26 23:04 | 40.67162 | -81.62706 | 36171 ft | 445 kts | 171° |
| 2026-04-26 23:05 | 40.61172 | -81.60647 | 36172 ft | 445 kts | 171° |
| 2026-04-26 23:05 | 40.55186 | -81.58596 | 36174 ft | 444 kts | 171° |
| 2026-04-26 23:06 | 40.49207 | -81.56546 | 36172 ft | 445 kts | 170° |
| 2026-04-26 23:06 | 40.43213 | -81.54493 | 36172 ft | 445 kts | 171° |
| 2026-04-26 23:07 | 40.37218 | -81.52450 | 36167 ft | 445 kts | 171° |
| 2026-04-26 23:07 | 40.31227 | -81.50405 | 36162 ft | 445 kts | 171° |
| 2026-04-26 23:08 | 40.25244 | -81.48362 | 36156 ft | 444 kts | 171° |
| 2026-04-26 23:08 | 40.19259 | -81.46327 | 36148 ft | 444 kts | 171° |
| 2026-04-26 23:09 | 40.13286 | -81.44296 | 36143 ft | 444 kts | 171° |
| 2026-04-26 23:09 | 40.07313 | -81.42284 | 36143 ft | 443 kts | 171° |
| 2026-04-26 23:10 | 40.01342 | -81.40274 | 36145 ft | 443 kts | 171° |
| 2026-04-26 23:10 | 39.95377 | -81.38259 | 36151 ft | 443 kts | 171° |
| 2026-04-26 23:11 | 39.89416 | -81.36249 | 36153 ft | 443 kts | 171° |
| 2026-04-26 23:11 | 39.83450 | -81.34244 | 36151 ft | 442 kts | 171° |
| 2026-04-26 23:12 | 39.77488 | -81.32252 | 36141 ft | 442 kts | 171° |
| 2026-04-26 23:12 | 39.71533 | -81.30257 | 36142 ft | 442 kts | 171° |
| 2026-04-26 23:13 | 39.65589 | -81.28272 | 36129 ft | 441 kts | 171° |
| 2026-04-26 23:13 | 39.59647 | -81.26290 | 36126 ft | 441 kts | 171° |
| 2026-04-26 23:14 | 39.53686 | -81.24521 | 36125 ft | 435 kts | 179° |
| 2026-04-26 23:14 | 39.47703 | -81.24479 | 36123 ft | 429 kts | 187° |
| 2026-04-26 23:15 | 39.41745 | -81.24781 | 36117 ft | 429 kts | 187° |
| 2026-04-26 23:15 | 39.35781 | -81.25074 | 36114 ft | 429 kts | 187° |
| 2026-04-26 23:16 | 39.29861 | -81.25353 | 36107 ft | 429 kts | 187° |
| 2026-04-26 23:16 | 39.23855 | -81.25637 | 36111 ft | 429 kts | 187° |
| 2026-04-26 23:17 | 39.17896 | -81.25925 | 36098 ft | 429 kts | 187° |
| 2026-04-26 23:17 | 39.11976 | -81.26222 | 36109 ft | 428 kts | 187° |
| 2026-04-26 23:18 | 39.06013 | -81.26511 | 36103 ft | 428 kts | 187° |
| 2026-04-26 23:18 | 39.00053 | -81.26788 | 36093 ft | 428 kts | 187° |
| 2026-04-26 23:19 | 38.94095 | -81.27066 | 36099 ft | 429 kts | 187° |
| 2026-04-26 23:19 | 38.88137 | -81.27358 | 36098 ft | 429 kts | 187° |
| 2026-04-26 23:20 | 38.82173 | -81.27646 | 36092 ft | 429 kts | 187° |
| 2026-04-26 23:20 | 38.76204 | -81.27924 | 36087 ft | 429 kts | 187° |
| 2026-04-26 23:21 | 38.70243 | -81.28205 | 36076 ft | 429 kts | 186° |
| 2026-04-26 23:21 | 38.64282 | -81.28488 | 36078 ft | 429 kts | 187° |
| 2026-04-26 23:22 | 38.58312 | -81.28779 | 36071 ft | 430 kts | 186° |
| 2026-04-26 23:22 | 38.52341 | -81.29057 | 36069 ft | 430 kts | 186° |
| 2026-04-26 23:23 | 38.46358 | -81.29348 | 36073 ft | 430 kts | 187° |
| 2026-04-26 23:23 | 38.40373 | -81.29817 | 36074 ft | 430 kts | 188° |
| 2026-04-26 23:24 | 38.34408 | -81.30367 | 36070 ft | 430 kts | 188° |
| 2026-04-26 23:24 | 38.28391 | -81.30886 | 36091 ft | 438 kts | 183° |
| 2026-04-26 23:25 | 38.22218 | -81.30470 | 36088 ft | 450 kts | 178° |
| 2026-04-26 23:25 | 38.15906 | -81.29886 | 36084 ft | 461 kts | 178° |
| 2026-04-26 23:26 | 38.09436 | -81.29312 | 36079 ft | 471 kts | 178° |
| 2026-04-26 23:26 | 38.02841 | -81.28730 | 36082 ft | 478 kts | 178° |
| 2026-04-26 23:27 | 37.96198 | -81.28140 | 36089 ft | 479 kts | 178° |
| 2026-04-26 23:27 | 37.89547 | -81.27545 | 36097 ft | 479 kts | 178° |
| 2026-04-26 23:28 | 37.82898 | -81.26950 | 36102 ft | 479 kts | 178° |
| 2026-04-26 23:28 | 37.76251 | -81.26369 | 36103 ft | 479 kts | 178° |
| 2026-04-26 23:29 | 37.69595 | -81.25790 | 36096 ft | 479 kts | 178° |
| 2026-04-26 23:29 | 37.62991 | -81.25213 | 36079 ft | 479 kts | 178° |
| 2026-04-26 23:30 | 37.56336 | -81.24627 | 36061 ft | 479 kts | 178° |
| 2026-04-26 23:30 | 37.49682 | -81.24034 | 36061 ft | 480 kts | 178° |
| 2026-04-26 23:31 | 37.43023 | -81.23445 | 36076 ft | 480 kts | 178° |
| 2026-04-26 23:31 | 37.36355 | -81.22869 | 36086 ft | 480 kts | 178° |
| 2026-04-26 23:32 | 37.29693 | -81.22294 | 36085 ft | 480 kts | 178° |
| 2026-04-26 23:32 | 37.23026 | -81.21719 | 36092 ft | 480 kts | 178° |
| 2026-04-26 23:33 | 37.16359 | -81.21131 | 36082 ft | 480 kts | 178° |
| 2026-04-26 23:33 | 37.09693 | -81.20550 | 36062 ft | 480 kts | 178° |
| 2026-04-26 23:34 | 37.03026 | -81.19971 | 36096 ft | 481 kts | 178° |
| 2026-04-26 23:34 | 36.96356 | -81.19390 | 36114 ft | 481 kts | 178° |
| 2026-04-26 23:35 | 36.89681 | -81.18814 | 36120 ft | 481 kts | 178° |
| 2026-04-26 23:35 | 36.83011 | -81.18238 | 36114 ft | 481 kts | 178° |
| 2026-04-26 23:36 | 36.76328 | -81.17657 | 36105 ft | 481 kts | 178° |
| 2026-04-26 23:36 | 36.69658 | -81.17080 | 36084 ft | 481 kts | 179° |
| 2026-04-26 23:37 | 36.62968 | -81.16509 | 36072 ft | 481 kts | 179° |
| 2026-04-26 23:37 | 36.56297 | -81.15943 | 36086 ft | 481 kts | 179° |
| 2026-04-26 23:38 | 36.49609 | -81.15379 | 36094 ft | 481 kts | 179° |
| 2026-04-26 23:38 | 36.42934 | -81.14792 | 36116 ft | 482 kts | 176° |
| 2026-04-26 23:39 | 36.36330 | -81.13136 | 36154 ft | 485 kts | 169° |
| 2026-04-26 23:39 | 36.29752 | -81.11277 | 36174 ft | 485 kts | 169° |
| 2026-04-26 23:40 | 36.24281 | -81.09741 | 36176 ft | 485 kts | 169° |
| 2026-04-26 23:40 | 36.17696 | -81.07893 | 36178 ft | 485 kts | 169° |
| 2026-04-26 23:41 | 36.11107 | -81.06042 | 36164 ft | 486 kts | 169° |
| 2026-04-26 23:41 | 36.04510 | -81.04190 | 36128 ft | 486 kts | 170° |
| 2026-04-26 23:42 | 35.97920 | -81.02352 | 36073 ft | 486 kts | 170° |
| 2026-04-26 23:42 | 35.88020 | -80.99593 | 36093 ft | 486 kts | 170° |
| 2026-04-26 23:43 | 35.81434 | -80.97765 | 36121 ft | 486 kts | 170° |
| 2026-04-26 23:43 | 35.74828 | -80.95922 | 36122 ft | 486 kts | 170° |
| 2026-04-26 23:44 | 35.68231 | -80.94087 | 36125 ft | 486 kts | 170° |
| 2026-04-26 23:44 | 35.61630 | -80.92259 | 36111 ft | 486 kts | 170° |
| 2026-04-26 23:45 | 35.54989 | -80.90419 | 36108 ft | 486 kts | 170° |
| 2026-04-26 23:45 | 35.48386 | -80.88591 | 36114 ft | 486 kts | 171° |
| 2026-04-26 23:46 | 35.41781 | -80.86767 | 36107 ft | 487 kts | 171° |
| 2026-04-26 23:46 | 35.35169 | -80.84944 | 36101 ft | 487 kts | 171° |
| 2026-04-26 23:47 | 35.28593 | -80.83140 | 36065 ft | 487 kts | 171° |
| 2026-04-26 23:47 | 35.21977 | -80.81331 | 36068 ft | 487 kts | 171° |
| 2026-04-26 23:48 | 35.15325 | -80.79509 | 36067 ft | 487 kts | 171° |
| 2026-04-26 23:48 | 35.08701 | -80.77696 | 36081 ft | 487 kts | 171° |
| 2026-04-26 23:49 | 35.02073 | -80.75888 | 36077 ft | 488 kts | 171° |
| 2026-04-26 23:49 | 34.95462 | -80.74088 | 36076 ft | 488 kts | 171° |
| 2026-04-26 23:50 | 34.88835 | -80.72286 | 36075 ft | 488 kts | 171° |
| 2026-04-26 23:50 | 34.82229 | -80.70489 | 36075 ft | 488 kts | 171° |
| 2026-04-26 23:51 | 34.75594 | -80.68683 | 36077 ft | 488 kts | 171° |
| 2026-04-26 23:51 | 34.68948 | -80.67812 | 36070 ft | 475 kts | 189° |
| 2026-04-26 23:52 | 34.65706 | -80.68394 | 36068 ft | 467 kts | 200° |
| 2026-04-26 23:52 | 34.62647 | -80.69617 | 36068 ft | 458 kts | 210° |
| 2026-04-26 23:52 | 34.57353 | -80.73621 | 36058 ft | 442 kts | 228° |
| 2026-04-26 23:53 | 34.52783 | -80.78577 | 36055 ft | 442 kts | 228° |
| 2026-04-26 23:53 | 34.48184 | -80.83536 | 36053 ft | 442 kts | 228° |
| 2026-04-26 23:54 | 34.43589 | -80.88486 | 36041 ft | 442 kts | 228° |
| 2026-04-26 23:54 | 34.38987 | -80.93442 | 36057 ft | 442 kts | 228° |
| 2026-04-26 23:55 | 34.34392 | -80.98392 | 36060 ft | 442 kts | 228° |
| 2026-04-26 23:55 | 34.29184 | -81.02519 | 36070 ft | 457 kts | 209° |
| 2026-04-26 23:56 | 34.23099 | -81.05008 | 36068 ft | 463 kts | 204° |
| 2026-04-26 23:56 | 34.16956 | -81.07356 | 36055 ft | 463 kts | 204° |
| 2026-04-26 23:57 | 34.10823 | -81.09705 | 36033 ft | 463 kts | 204° |
| 2026-04-26 23:57 | 34.04683 | -81.12063 | 36024 ft | 463 kts | 204° |
| 2026-04-26 23:58 | 33.98548 | -81.14418 | 36028 ft | 463 kts | 204° |
| 2026-04-26 23:58 | 33.92416 | -81.16767 | 36027 ft | 463 kts | 204° |
| 2026-04-26 23:59 | 33.86280 | -81.19105 | 36034 ft | 463 kts | 204° |
| 2026-04-26 23:59 | 33.80146 | -81.21442 | 36030 ft | 462 kts | 204° |
| 2026-04-27 00:00 | 33.74011 | -81.23779 | 36009 ft | 462 kts | 204° |
| 2026-04-27 00:00 | 33.67879 | -81.26109 | 36000 ft | 462 kts | 204° |
| 2026-04-27 00:01 | 33.61749 | -81.28433 | 36000 ft | 462 kts | 204° |
| 2026-04-27 00:01 | 33.55638 | -81.30760 | 36009 ft | 462 kts | 204° |
| 2026-04-27 00:02 | 33.49501 | -81.33082 | 36008 ft | 461 kts | 204° |
| 2026-04-27 00:02 | 33.43384 | -81.35397 | 36008 ft | 461 kts | 204° |
| 2026-04-27 00:03 | 33.37280 | -81.37705 | 36020 ft | 461 kts | 204° |
| 2026-04-27 00:03 | 33.31163 | -81.40004 | 36019 ft | 460 kts | 204° |
| 2026-04-27 00:04 | 33.25082 | -81.42343 | 36018 ft | 458 kts | 206° |
| 2026-04-27 00:04 | 33.19089 | -81.44913 | 36023 ft | 456 kts | 207° |
| 2026-04-27 00:05 | 33.13142 | -81.47544 | 36013 ft | 456 kts | 207° |
| 2026-04-27 00:05 | 33.07178 | -81.50133 | 36002 ft | 456 kts | 207° |
| 2026-04-27 00:06 | 33.01200 | -81.52681 | 36001 ft | 456 kts | 207° |
| 2026-04-27 00:06 | 32.95230 | -81.55210 | 36001 ft | 456 kts | 207° |
| 2026-04-27 00:07 | 32.89259 | -81.57755 | 35989 ft | 455 kts | 207° |
| 2026-04-27 00:07 | 32.83359 | -81.60415 | 35998 ft | 453 kts | 208° |
| 2026-04-27 00:08 | 32.77469 | -81.63127 | 36003 ft | 453 kts | 208° |
| 2026-04-27 00:08 | 32.71590 | -81.65810 | 36010 ft | 453 kts | 208° |
| 2026-04-27 00:09 | 32.65690 | -81.68474 | 36003 ft | 453 kts | 208° |
| 2026-04-27 00:09 | 32.59805 | -81.71115 | 35999 ft | 453 kts | 207° |
| 2026-04-27 00:10 | 32.53912 | -81.73756 | 35965 ft | 452 kts | 207° |
| 2026-04-27 00:10 | 32.48025 | -81.76412 | 35969 ft | 452 kts | 208° |
| 2026-04-27 00:11 | 32.42153 | -81.79048 | 35971 ft | 451 kts | 207° |
| 2026-04-27 00:11 | 32.37273 | -81.81235 | 35974 ft | 451 kts | 207° |
| 2026-04-27 00:12 | 32.30423 | -81.84295 | 35986 ft | 450 kts | 207° |
| 2026-04-27 00:12 | 32.24574 | -81.86914 | 35991 ft | 449 kts | 207° |
| 2026-04-27 00:13 | 32.18716 | -81.89526 | 35994 ft | 449 kts | 207° |
| 2026-04-27 00:13 | 32.12868 | -81.92090 | 35998 ft | 449 kts | 206° |
| 2026-04-27 00:14 | 32.06905 | -81.94384 | 35991 ft | 451 kts | 204° |
| 2026-04-27 00:14 | 32.00893 | -81.96527 | 35978 ft | 451 kts | 204° |
| 2026-04-27 00:15 | 31.94913 | -81.98702 | 35976 ft | 450 kts | 205° |
| 2026-04-27 00:15 | 31.88951 | -82.00930 | 35976 ft | 449 kts | 205° |
| 2026-04-27 00:16 | 31.82992 | -82.03162 | 35972 ft | 449 kts | 205° |
| 2026-04-27 00:16 | 31.77026 | -82.05328 | 35979 ft | 449 kts | 204° |
| 2026-04-27 00:17 | 31.71052 | -82.07478 | 35986 ft | 448 kts | 204° |
| 2026-04-27 00:17 | 31.65099 | -82.09626 | 35991 ft | 448 kts | 205° |
| 2026-04-27 00:18 | 31.60108 | -82.11436 | 35990 ft | 448 kts | 205° |
| 2026-04-27 00:18 | 31.54198 | -82.13579 | 35988 ft | 447 kts | 205° |
| 2026-04-27 00:19 | 31.48242 | -82.15727 | 35983 ft | 447 kts | 205° |
| 2026-04-27 00:19 | 31.42292 | -82.17866 | 35951 ft | 447 kts | 204° |
| 2026-04-27 00:20 | 31.36355 | -82.20002 | 35948 ft | 447 kts | 204° |
| 2026-04-27 00:20 | 31.30412 | -82.22147 | 35948 ft | 446 kts | 204° |
| 2026-04-27 00:21 | 31.24475 | -82.24282 | 35948 ft | 446 kts | 204° |
| 2026-04-27 00:21 | 31.18541 | -82.26411 | 35951 ft | 446 kts | 204° |
| 2026-04-27 00:22 | 31.12598 | -82.28537 | 35955 ft | 446 kts | 204° |
| 2026-04-27 00:22 | 31.06665 | -82.30656 | 35966 ft | 446 kts | 204° |
| 2026-04-27 00:23 | 31.00734 | -82.32773 | 35985 ft | 446 kts | 204° |
| 2026-04-27 00:23 | 30.94802 | -82.34891 | 35998 ft | 446 kts | 204° |
| 2026-04-27 00:24 | 30.88863 | -82.37002 | 36015 ft | 446 kts | 204° |
| 2026-04-27 00:24 | 30.82919 | -82.39120 | 36019 ft | 446 kts | 204° |
| 2026-04-27 00:25 | 30.76984 | -82.41235 | 36018 ft | 447 kts | 204° |
| 2026-04-27 00:25 | 30.71041 | -82.43371 | 36024 ft | 445 kts | 207° |
| 2026-04-27 00:26 | 30.65473 | -82.46317 | 36026 ft | 439 kts | 212° |
| 2026-04-27 00:26 | 30.59975 | -82.49409 | 36025 ft | 439 kts | 212° |
| 2026-04-27 00:27 | 30.54468 | -82.52500 | 36021 ft | 440 kts | 212° |
| 2026-04-27 00:27 | 30.48953 | -82.55584 | 35996 ft | 441 kts | 212° |
| 2026-04-27 00:28 | 30.43431 | -82.58668 | 35974 ft | 441 kts | 212° |
| 2026-04-27 00:28 | 30.37899 | -82.61763 | 35953 ft | 442 kts | 212° |
| 2026-04-27 00:29 | 30.32347 | -82.64859 | 35940 ft | 443 kts | 212° |
| 2026-04-27 00:29 | 30.26748 | -82.67962 | 35935 ft | 444 kts | 212° |
| 2026-04-27 00:30 | 30.21168 | -82.71057 | 35932 ft | 445 kts | 212° |
| 2026-04-27 00:30 | 30.15584 | -82.74167 | 35931 ft | 446 kts | 212° |
| 2026-04-27 00:31 | 30.09986 | -82.77277 | 35932 ft | 447 kts | 212° |
| 2026-04-27 00:31 | 30.04371 | -82.80385 | 35932 ft | 448 kts | 212° |
| 2026-04-27 00:32 | 29.98784 | -82.83469 | 35933 ft | 449 kts | 212° |
| 2026-04-27 00:32 | 29.93145 | -82.86585 | 35925 ft | 450 kts | 212° |
| 2026-04-27 00:33 | 29.87467 | -82.89719 | 35936 ft | 451 kts | 212° |
| 2026-04-27 00:33 | 29.81836 | -82.92822 | 35929 ft | 452 kts | 212° |
| 2026-04-27 00:34 | 29.76163 | -82.95953 | 35947 ft | 452 kts | 212° |
| 2026-04-27 00:34 | 29.70486 | -82.99083 | 35951 ft | 453 kts | 212° |
| 2026-04-27 00:35 | 29.64792 | -83.02214 | 35953 ft | 454 kts | 211° |
| 2026-04-27 00:35 | 29.58967 | -83.05044 | 35954 ft | 461 kts | 201° |
| 2026-04-27 00:36 | 29.52649 | -83.06600 | 35951 ft | 465 kts | 197° |
| 2026-04-27 00:36 | 29.46315 | -83.08104 | 35951 ft | 465 kts | 197° |
| 2026-04-27 00:37 | 29.39990 | -83.09611 | 35954 ft | 465 kts | 197° |
| 2026-04-27 00:37 | 29.33659 | -83.11114 | 35957 ft | 465 kts | 197° |
| 2026-04-27 00:38 | 29.27330 | -83.12616 | 35962 ft | 464 kts | 197° |
| 2026-04-27 00:38 | 29.21008 | -83.14115 | 35965 ft | 464 kts | 197° |
| 2026-04-27 00:39 | 29.14681 | -83.15603 | 35963 ft | 464 kts | 197° |
| 2026-04-27 00:39 | 29.08357 | -83.17087 | 35964 ft | 464 kts | 197° |
| 2026-04-27 00:40 | 29.02045 | -83.18573 | 35961 ft | 463 kts | 197° |
| 2026-04-27 00:40 | 28.95723 | -83.20063 | 35961 ft | 463 kts | 197° |
| 2026-04-27 00:41 | 28.89406 | -83.21543 | 35956 ft | 463 kts | 197° |
| 2026-04-27 00:41 | 28.83094 | -83.23027 | 35958 ft | 463 kts | 197° |
| 2026-04-27 00:42 | 28.76778 | -83.24507 | 35962 ft | 464 kts | 197° |
| 2026-04-27 00:42 | 28.70455 | -83.25984 | 35960 ft | 464 kts | 197° |
| 2026-04-27 00:43 | 28.64135 | -83.27457 | 35965 ft | 464 kts | 197° |
| 2026-04-27 00:43 | 28.57817 | -83.28938 | 35964 ft | 464 kts | 197° |
| 2026-04-27 00:44 | 28.51489 | -83.30420 | 35964 ft | 464 kts | 197° |
| 2026-04-27 00:44 | 28.45131 | -83.31902 | 35967 ft | 464 kts | 197° |
| 2026-04-27 00:45 | 28.38840 | -83.33360 | 35966 ft | 464 kts | 197° |
| 2026-04-27 00:45 | 28.32505 | -83.34825 | 35969 ft | 465 kts | 197° |
| 2026-04-27 00:46 | 28.26160 | -83.36295 | 35967 ft | 465 kts | 197° |
| 2026-04-27 00:46 | 28.19823 | -83.37765 | 35978 ft | 465 kts | 197° |
| 2026-04-27 00:47 | 28.13467 | -83.39240 | 35980 ft | 466 kts | 197° |
| 2026-04-27 00:47 | 28.07171 | -83.40850 | 35976 ft | 460 kts | 205° |
| 2026-04-27 00:48 | 28.04262 | -83.42284 | 35969 ft | 451 kts | 216° |
| 2026-04-27 00:48 | 28.01687 | -83.44232 | 35968 ft | 441 kts | 226° |
| 2026-04-27 00:48 | 27.97740 | -83.49319 | 35971 ft | 425 kts | 245° |
| 2026-04-27 00:49 | 27.95312 | -83.55329 | 35970 ft | 418 kts | 253° |
| 2026-04-27 00:49 | 27.93080 | -83.61411 | 35974 ft | 419 kts | 252° |
| 2026-04-27 00:50 | 27.89704 | -83.70526 | 35979 ft | 419 kts | 252° |
| 2026-04-27 00:51 | 27.87454 | -83.76608 | 35986 ft | 419 kts | 253° |
| 2026-04-27 00:51 | 27.85216 | -83.82681 | 35987 ft | 419 kts | 253° |
| 2026-04-27 00:52 | 27.82968 | -83.88747 | 35993 ft | 418 kts | 253° |
| 2026-04-27 00:52 | 27.80716 | -83.94806 | 35993 ft | 418 kts | 253° |
| 2026-04-27 00:53 | 27.78466 | -84.00856 | 35996 ft | 418 kts | 253° |
| 2026-04-27 00:53 | 27.76220 | -84.06894 | 35998 ft | 417 kts | 253° |
| 2026-04-27 00:54 | 27.73962 | -84.12931 | 36001 ft | 417 kts | 253° |
| 2026-04-27 00:54 | 27.71716 | -84.18952 | 35998 ft | 416 kts | 253° |
| 2026-04-27 00:55 | 27.69464 | -84.24975 | 35999 ft | 416 kts | 253° |
| 2026-04-27 00:55 | 27.67207 | -84.30985 | 36000 ft | 416 kts | 253° |
| 2026-04-27 00:56 | 27.64943 | -84.36997 | 35998 ft | 416 kts | 253° |
| 2026-04-27 00:56 | 27.62697 | -84.43001 | 35995 ft | 415 kts | 253° |
| 2026-04-27 00:57 | 27.60440 | -84.48992 | 35997 ft | 415 kts | 253° |
| 2026-04-27 00:57 | 27.58196 | -84.54947 | 35997 ft | 415 kts | 253° |
| 2026-04-27 00:58 | 27.55943 | -84.60934 | 35997 ft | 415 kts | 253° |
| 2026-04-27 00:58 | 27.53672 | -84.66921 | 35993 ft | 415 kts | 253° |
| 2026-04-27 00:59 | 27.51350 | -84.72888 | 35995 ft | 419 kts | 248° |
| 2026-04-27 00:59 | 27.49733 | -84.75651 | 35994 ft | 429 kts | 237° |
| 2026-04-27 00:59 | 27.47608 | -84.78065 | 35987 ft | 440 kts | 226° |
| 2026-04-27 00:59 | 27.45024 | -84.79988 | 35980 ft | 452 kts | 214° |
| 2026-04-27 01:00 | 27.43066 | -84.80944 | 35981 ft | 459 kts | 207° |
| 2026-04-27 01:00 | 27.37084 | -84.83369 | 35977 ft | 460 kts | 207° |
| 2026-04-27 01:01 | 27.31061 | -84.85848 | 35973 ft | 461 kts | 208° |
| 2026-04-27 01:01 | 27.25043 | -84.88343 | 35977 ft | 462 kts | 208° |
| 2026-04-27 01:02 | 27.19005 | -84.90831 | 35982 ft | 462 kts | 207° |
| 2026-04-27 01:02 | 27.12960 | -84.93304 | 35984 ft | 463 kts | 207° |
| 2026-04-27 01:03 | 27.06914 | -84.95785 | 35983 ft | 463 kts | 208° |
| 2026-04-27 01:03 | 27.00872 | -84.98275 | 35987 ft | 463 kts | 208° |
| 2026-04-27 01:04 | 26.94821 | -85.00761 | 35989 ft | 463 kts | 207° |
| 2026-04-27 01:04 | 26.88765 | -85.03221 | 35986 ft | 463 kts | 207° |
| 2026-04-27 01:05 | 26.82708 | -85.05686 | 36000 ft | 463 kts | 207° |
| 2026-04-27 01:05 | 26.76651 | -85.08155 | 35998 ft | 463 kts | 207° |
| 2026-04-27 01:06 | 26.70598 | -85.10620 | 35995 ft | 463 kts | 207° |
| 2026-04-27 01:06 | 26.64537 | -85.13086 | 35992 ft | 463 kts | 207° |
| 2026-04-27 01:07 | 26.58485 | -85.15542 | 35997 ft | 463 kts | 207° |
| 2026-04-27 01:07 | 26.52431 | -85.18005 | 35992 ft | 463 kts | 207° |
| 2026-04-27 01:08 | 26.46379 | -85.20467 | 35992 ft | 463 kts | 207° |
| 2026-04-27 01:08 | 26.40319 | -85.22907 | 35989 ft | 464 kts | 205° |
| 2026-04-27 01:09 | 26.33867 | -85.24222 | 35989 ft | 478 kts | 192° |
| 2026-04-27 01:09 | 26.27244 | -85.24897 | 35984 ft | 478 kts | 192° |
| 2026-04-27 01:10 | 26.20614 | -85.25578 | 35985 ft | 478 kts | 192° |
| 2026-04-27 01:10 | 26.13979 | -85.26262 | 35987 ft | 478 kts | 192° |
| 2026-04-27 01:11 | 26.07351 | -85.26949 | 35987 ft | 479 kts | 192° |
| 2026-04-27 01:11 | 26.00723 | -85.27633 | 35985 ft | 479 kts | 192° |
| 2026-04-27 01:12 | 25.94086 | -85.28316 | 35989 ft | 479 kts | 192° |
| 2026-04-27 01:12 | 25.87460 | -85.29012 | 35989 ft | 479 kts | 192° |
| 2026-04-27 01:13 | 25.80822 | -85.29703 | 35979 ft | 479 kts | 192° |
| 2026-04-27 01:13 | 25.74190 | -85.30385 | 35982 ft | 479 kts | 192° |
| 2026-04-27 01:14 | 25.67600 | -85.31062 | 35990 ft | 479 kts | 192° |
| 2026-04-27 01:14 | 25.60926 | -85.31751 | 35992 ft | 479 kts | 192° |
| 2026-04-27 01:15 | 25.54330 | -85.32429 | 35978 ft | 479 kts | 192° |
| 2026-04-27 01:15 | 25.47701 | -85.33111 | 35985 ft | 479 kts | 192° |
| 2026-04-27 01:16 | 25.41051 | -85.33792 | 35984 ft | 479 kts | 192° |
| 2026-04-27 01:16 | 25.34544 | -85.34959 | 35978 ft | 467 kts | 205° |
| 2026-04-27 01:17 | 25.28747 | -85.37896 | 35977 ft | 454 kts | 217° |
| 2026-04-27 01:17 | 25.23270 | -85.41374 | 35974 ft | 454 kts | 217° |
| 2026-04-27 01:18 | 25.17777 | -85.44836 | 35974 ft | 455 kts | 217° |
| 2026-04-27 01:18 | 25.12200 | -85.48187 | 35973 ft | 461 kts | 210° |
| 2026-04-27 01:19 | 25.05883 | -85.49932 | 35971 ft | 479 kts | 190° |
| 2026-04-27 01:19 | 24.99170 | -85.49984 | 35971 ft | 483 kts | 185° |
| 2026-04-27 01:20 | 24.92444 | -85.49979 | 35970 ft | 483 kts | 186° |
| 2026-04-27 01:20 | 24.85713 | -85.49987 | 35973 ft | 484 kts | 186° |
| 2026-04-27 01:21 | 24.78987 | -85.49990 | 35975 ft | 484 kts | 186° |
| 2026-04-27 01:21 | 24.72251 | -85.49989 | 35977 ft | 484 kts | 185° |
| 2026-04-27 01:22 | 24.65522 | -85.49984 | 35980 ft | 484 kts | 185° |
| 2026-04-27 01:22 | 24.58794 | -85.49980 | 35978 ft | 483 kts | 186° |
| 2026-04-27 01:23 | 24.52066 | -85.49989 | 35980 ft | 483 kts | 186° |
| 2026-04-27 01:23 | 24.45342 | -85.49998 | 35981 ft | 483 kts | 185° |
| 2026-04-27 01:24 | 24.38620 | -85.49997 | 35981 ft | 483 kts | 185° |
| 2026-04-27 01:24 | 24.31900 | -85.49992 | 35979 ft | 483 kts | 185° |
| 2026-04-27 01:25 | 24.25177 | -85.49996 | 35980 ft | 483 kts | 185° |
| 2026-04-27 01:25 | 24.18466 | -85.49998 | 35984 ft | 483 kts | 185° |
| 2026-04-27 01:26 | 24.11750 | -85.49997 | 35980 ft | 482 kts | 185° |
| 2026-04-27 01:26 | 24.05032 | -85.49999 | 35979 ft | 482 kts | 185° |
| 2026-04-27 01:27 | 23.98323 | -85.50021 | 35978 ft | 481 kts | 186° |
| 2026-04-27 01:27 | 23.91646 | -85.50289 | 35973 ft | 480 kts | 188° |
| 2026-04-27 01:28 | 23.84992 | -85.50700 | 35977 ft | 479 kts | 188° |
| 2026-04-27 01:28 | 23.78326 | -85.51082 | 35974 ft | 479 kts | 187° |
| 2026-04-27 01:29 | 23.71658 | -85.51393 | 35974 ft | 480 kts | 187° |
| 2026-04-27 01:29 | 23.64995 | -85.51694 | 35971 ft | 479 kts | 187° |
| 2026-04-27 01:30 | 23.58333 | -85.52008 | 35972 ft | 479 kts | 187° |
| 2026-04-27 01:30 | 23.51713 | -85.52331 | 35968 ft | 479 kts | 187° |
| 2026-04-27 01:31 | 23.45009 | -85.52657 | 35971 ft | 479 kts | 187° |
| 2026-04-27 01:31 | 23.38394 | -85.52975 | 35977 ft | 479 kts | 187° |
| 2026-04-27 01:32 | 23.31699 | -85.53297 | 35978 ft | 479 kts | 187° |
| 2026-04-27 01:32 | 23.25086 | -85.53618 | 35982 ft | 478 kts | 187° |
| 2026-04-27 01:33 | 23.18440 | -85.53933 | 35970 ft | 478 kts | 187° |
| 2026-04-27 01:33 | 23.11790 | -85.54244 | 35971 ft | 478 kts | 187° |
| 2026-04-27 01:34 | 23.05149 | -85.54559 | 35966 ft | 478 kts | 187° |
| 2026-04-27 01:34 | 22.98507 | -85.54881 | 35971 ft | 477 kts | 187° |
| 2026-04-27 01:35 | 22.91869 | -85.55201 | 35969 ft | 477 kts | 187° |
| 2026-04-27 01:35 | 22.85234 | -85.55521 | 35969 ft | 477 kts | 187° |
| 2026-04-27 01:36 | 22.78609 | -85.55840 | 35967 ft | 477 kts | 187° |
| 2026-04-27 01:36 | 22.71989 | -85.56156 | 35971 ft | 476 kts | 187° |
| 2026-04-27 01:37 | 22.65371 | -85.56473 | 35972 ft | 476 kts | 186° |
| 2026-04-27 01:37 | 22.58758 | -85.56789 | 35627 ft | 474 kts | 186° |
| 2026-04-27 01:37 | 22.55458 | -85.56946 | 34998 ft | 475 kts | 186° |
| 2026-04-27 01:38 | 22.52154 | -85.57104 | 34397 ft | 475 kts | 186° |
| 2026-04-27 01:38 | 22.48862 | -85.57261 | 33770 ft | 475 kts | 186° |
| 2026-04-27 01:38 | 22.45556 | -85.57422 | 33060 ft | 476 kts | 186° |
| 2026-04-27 01:38 | 22.42237 | -85.57582 | 32326 ft | 477 kts | 186° |
| 2026-04-27 01:39 | 22.38918 | -85.57740 | 31593 ft | 479 kts | 186° |
| 2026-04-27 01:39 | 22.35585 | -85.57897 | 30946 ft | 479 kts | 186° |
| 2026-04-27 01:39 | 22.32270 | -85.58072 | 30428 ft | 473 kts | 189° |
| 2026-04-27 01:39 | 22.29065 | -85.58676 | 29895 ft | 463 kts | 200° |
| 2026-04-27 01:40 | 22.26081 | -85.59839 | 29294 ft | 452 kts | 210° |
| 2026-04-27 01:40 | 22.23369 | -85.61489 | 28713 ft | 443 kts | 219° |
| 2026-04-27 01:40 | 22.20984 | -85.63535 | 28110 ft | 434 kts | 228° |
| 2026-04-27 01:40 | 22.18970 | -85.65908 | 27533 ft | 425 kts | 237° |
| 2026-04-27 01:41 | 22.17200 | -85.68447 | 26953 ft | 422 kts | 237° |
| 2026-04-27 01:41 | 22.15438 | -85.70971 | 26382 ft | 419 kts | 237° |
| 2026-04-27 01:41 | 22.13684 | -85.73470 | 25846 ft | 417 kts | 237° |
| 2026-04-27 01:41 | 22.11935 | -85.75953 | 25305 ft | 414 kts | 237° |
| 2026-04-27 01:42 | 22.10201 | -85.78415 | 24778 ft | 412 kts | 237° |
| 2026-04-27 01:42 | 22.08474 | -85.80869 | 24258 ft | 409 kts | 237° |
| 2026-04-27 01:42 | 22.06761 | -85.83313 | 23738 ft | 407 kts | 237° |
| 2026-04-27 01:42 | 22.05060 | -85.85739 | 23172 ft | 405 kts | 237° |
| 2026-04-27 01:43 | 22.03366 | -85.88156 | 22587 ft | 402 kts | 237° |
| 2026-04-27 01:43 | 22.01685 | -85.90548 | 22020 ft | 399 kts | 237° |
| 2026-04-27 01:43 | 22.00011 | -85.92924 | 21460 ft | 397 kts | 236° |
| 2026-04-27 01:43 | 21.98346 | -85.95285 | 20914 ft | 394 kts | 236° |
| 2026-04-27 01:44 | 21.96670 | -85.97601 | 20500 ft | 390 kts | 232° |
| 2026-04-27 01:44 | 21.94737 | -85.99655 | 20053 ft | 390 kts | 225° |
| 2026-04-27 01:44 | 21.92704 | -86.01569 | 19571 ft | 387 kts | 224° |
| 2026-04-27 01:44 | 21.91364 | -86.02830 | 19260 ft | 386 kts | 224° |
| 2026-04-27 01:45 | 21.89347 | -86.04727 | 18802 ft | 384 kts | 224° |
| 2026-04-27 01:45 | 21.87336 | -86.06620 | 18336 ft | 383 kts | 224° |
| 2026-04-27 01:45 | 21.85342 | -86.08498 | 17935 ft | 381 kts | 224° |
| 2026-04-27 01:45 | 21.83351 | -86.10375 | 17963 ft | 382 kts | 224° |
| 2026-04-27 01:46 | 21.81347 | -86.12264 | 17973 ft | 383 kts | 224° |
| 2026-04-27 01:46 | 21.79341 | -86.14151 | 17968 ft | 383 kts | 224° |
| 2026-04-27 01:46 | 21.77338 | -86.16033 | 17973 ft | 383 kts | 224° |
| 2026-04-27 01:46 | 21.75330 | -86.17918 | 17971 ft | 383 kts | 224° |
| 2026-04-27 01:47 | 21.73325 | -86.19801 | 17968 ft | 383 kts | 224° |
| 2026-04-27 01:47 | 21.71315 | -86.21690 | 17963 ft | 383 kts | 224° |
| 2026-04-27 01:47 | 21.69334 | -86.23549 | 17959 ft | 370 kts | 224° |
| 2026-04-27 01:47 | 21.67436 | -86.25324 | 17966 ft | 354 kts | 224° |
| 2026-04-27 01:48 | 21.65598 | -86.27039 | 17964 ft | 347 kts | 224° |
| 2026-04-27 01:48 | 21.63787 | -86.28733 | 17965 ft | 345 kts | 224° |
| 2026-04-27 01:48 | 21.61982 | -86.30431 | 17959 ft | 344 kts | 225° |
| 2026-04-27 01:48 | 21.60188 | -86.32121 | 17601 ft | 342 kts | 225° |
| 2026-04-27 01:49 | 21.58405 | -86.33799 | 17200 ft | 340 kts | 224° |
| 2026-04-27 01:49 | 21.56631 | -86.35464 | 16816 ft | 337 kts | 224° |
| 2026-04-27 01:49 | 21.54865 | -86.37120 | 16437 ft | 335 kts | 224° |
| 2026-04-27 01:49 | 21.53112 | -86.38752 | 16071 ft | 334 kts | 222° |
| 2026-04-27 01:50 | 21.51213 | -86.40182 | 15706 ft | 333 kts | 216° |
| 2026-04-27 01:50 | 21.49285 | -86.41554 | 15346 ft | 331 kts | 216° |
| 2026-04-27 01:50 | 21.47369 | -86.42921 | 14997 ft | 329 kts | 216° |
| 2026-04-27 01:50 | 21.45468 | -86.44280 | 14646 ft | 327 kts | 216° |
| 2026-04-27 01:51 | 21.43585 | -86.45627 | 14306 ft | 325 kts | 216° |
| 2026-04-27 01:51 | 21.41703 | -86.46974 | 13975 ft | 323 kts | 216° |
| 2026-04-27 01:51 | 21.39836 | -86.48309 | 13627 ft | 322 kts | 216° |
| 2026-04-27 01:51 | 21.37978 | -86.49636 | 13249 ft | 320 kts | 216° |
| 2026-04-27 01:52 | 21.36137 | -86.50953 | 12900 ft | 317 kts | 216° |
| 2026-04-27 01:52 | 21.34330 | -86.52249 | 12534 ft | 315 kts | 216° |
| 2026-04-27 01:52 | 21.32512 | -86.53552 | 12179 ft | 313 kts | 216° |
| 2026-04-27 01:52 | 21.30681 | -86.54864 | 11820 ft | 311 kts | 216° |
| 2026-04-27 01:53 | 21.28914 | -86.56129 | 11474 ft | 309 kts | 216° |
| 2026-04-27 01:53 | 21.27130 | -86.57405 | 11132 ft | 307 kts | 215° |
| 2026-04-27 01:53 | 21.25357 | -86.58670 | 10789 ft | 305 kts | 215° |
| 2026-04-27 01:53 | 21.23595 | -86.59927 | 10442 ft | 303 kts | 215° |
| 2026-04-27 01:54 | 21.21847 | -86.61174 | 10097 ft | 301 kts | 215° |
| 2026-04-27 01:54 | 21.20106 | -86.62416 | 9748 ft | 299 kts | 215° |
| 2026-04-27 01:54 | 21.18378 | -86.63650 | 9369 ft | 298 kts | 215° |
| 2026-04-27 01:54 | 21.16661 | -86.64874 | 8998 ft | 296 kts | 215° |
| 2026-04-27 01:55 | 21.14954 | -86.66091 | 8622 ft | 294 kts | 215° |
| 2026-04-27 01:55 | 21.13255 | -86.67304 | 8242 ft | 293 kts | 215° |
| 2026-04-27 01:55 | 21.11563 | -86.68508 | 8010 ft | 290 kts | 215° |
| 2026-04-27 01:55 | 21.09916 | -86.69680 | 7997 ft | 277 kts | 215° |
| 2026-04-27 01:56 | 21.07568 | -86.72508 | 7862 ft | 248 kts | 258° |
| 2026-04-27 01:56 | 21.07538 | -86.74308 | 7469 ft | 243 kts | 285° |
| 2026-04-27 01:56 | 21.08275 | -86.75918 | 7046 ft | 241 kts | 305° |
| 2026-04-27 01:57 | 21.09221 | -86.77401 | 6613 ft | 241 kts | 305° |
| 2026-04-27 01:57 | 21.10160 | -86.78886 | 6198 ft | 241 kts | 304° |
| 2026-04-27 01:57 | 21.11095 | -86.80374 | 5997 ft | 240 kts | 304° |
| 2026-04-27 01:57 | 21.12031 | -86.81866 | 6004 ft | 242 kts | 304° |
| 2026-04-27 01:58 | 21.12963 | -86.83357 | 5863 ft | 239 kts | 304° |
| 2026-04-27 01:58 | 21.13887 | -86.84841 | 5430 ft | 240 kts | 304° |
| 2026-04-27 01:58 | 21.14812 | -86.86324 | 5050 ft | 239 kts | 304° |
| 2026-04-27 01:58 | 21.15741 | -86.87808 | 4862 ft | 241 kts | 304° |
| 2026-04-27 01:59 | 21.16669 | -86.89290 | 4487 ft | 239 kts | 304° |
| 2026-04-27 01:59 | 21.17594 | -86.90774 | 4070 ft | 239 kts | 304° |
| 2026-04-27 01:59 | 21.18513 | -86.92262 | 3602 ft | 241 kts | 301° |
| 2026-04-27 01:59 | 21.18985 | -86.94006 | 3096 ft | 249 kts | 272° |
| 2026-04-27 02:00 | 21.18728 | -86.95848 | 2993 ft | 250 kts | 253° |
| 2026-04-27 02:00 | 21.18180 | -86.97526 | 2995 ft | 229 kts | 242° |
| 2026-04-27 02:00 | 21.17301 | -86.98875 | 2903 ft | 218 kts | 223° |
| 2026-04-27 02:00 | 21.16078 | -86.99705 | 2703 ft | 195 kts | 199° |
| 2026-04-27 02:01 | 21.14847 | -86.99951 | 2607 ft | 171 kts | 179° |
| 2026-04-27 02:01 | 21.13723 | -86.99776 | 2539 ft | 154 kts | 161° |
| 2026-04-27 02:01 | 21.12789 | -86.99305 | 2397 ft | 146 kts | 146° |
| 2026-04-27 02:01 | 21.12043 | -86.98603 | 2253 ft | 141 kts | 130° |
| 2026-04-27 02:02 | 21.11478 | -86.97748 | 2086 ft | 140 kts | 124° |
| 2026-04-27 02:02 | 21.10940 | -86.96888 | 1912 ft | 138 kts | 123° |
| 2026-04-27 02:02 | 21.10409 | -86.96038 | 1741 ft | 137 kts | 123° |
| 2026-04-27 02:02 | 21.09878 | -86.95188 | 1567 ft | 137 kts | 123° |
| 2026-04-27 02:03 | 21.09350 | -86.94342 | 1382 ft | 137 kts | 123° |
| 2026-04-27 02:03 | 21.08822 | -86.93496 | 1208 ft | 136 kts | 123° |
| 2026-04-27 02:03 | 21.08297 | -86.92658 | 1024 ft | 135 kts | 122° |
| 2026-04-27 02:03 | 21.07769 | -86.91828 | 850 ft | 136 kts | 125° |
| 2026-04-27 02:04 | 21.07244 | -86.90972 | 695 ft | 138 kts | 123° |
| 2026-04-27 02:04 | 21.06710 | -86.90120 | 492 ft | 138 kts | 125° |
| 2026-04-27 02:04 | 21.06175 | -86.89267 | 333 ft | 138 kts | 125° |
| 2026-04-27 02:04 | 21.05644 | -86.88409 | 155 ft | 138 kts | 124° |
| 2026-04-27 02:05 | 21.05118 | -86.87582 | 48 ft | 126 kts | 124° |
| 2026-04-27 02:05 | 21.04694 | -86.86905 | 32 ft | 83 kts | 122° |
| 2026-04-27 02:05 | 21.04472 | -86.86545 | 32 ft | 33 kts | 126° |
| 2026-04-27 02:05 | 21.04381 | -86.86450 | 30 ft | 20 kts | 137° |
| 2026-04-27 02:06 | 21.04236 | -86.86357 | 36 ft | 17 kts | 154° |
| 2026-04-27 02:06 | 21.04215 | -86.86346 | 37 ft | 0 kts | 154° |
| 2026-04-27 02:06 | 21.04200 | -86.86338 | 38 ft | 4 kts | 154° |
| 2026-04-27 02:07 | 21.04167 | -86.86321 | 40 ft | 6 kts | 154° |
| 2026-04-27 02:07 | 21.04122 | -86.86293 | 40 ft | 9 kts | 143° |
| 2026-04-27 02:07 | 21.04068 | -86.86232 | 45 ft | 13 kts | 139° |
| 2026-04-27 02:07 | 21.03990 | -86.86250 | 48 ft | 12 kts | 215° |
| 2026-04-27 02:08 | 21.03903 | -86.86314 | 51 ft | 18 kts | 212° |
| 2026-04-27 02:08 | 21.03792 | -86.86389 | 47 ft | 21 kts | 212° |
| 2026-04-27 02:08 | 21.03650 | -86.86489 | 32 ft | 28 kts | 213° |
| 2026-04-27 02:08 | 21.03502 | -86.86596 | 29 ft | 22 kts | 214° |
| 2026-04-27 02:09 | 21.03382 | -86.86682 | 29 ft | 19 kts | 214° |
| 2026-04-27 02:09 | 21.03356 | -86.86768 | 30 ft | 12 kts | 302° |
| 2026-04-27 02:09 | 21.03400 | -86.86841 | 29 ft | 14 kts | 303° |
| 2026-04-27 02:09 | 21.03464 | -86.86941 | 29 ft | 18 kts | 304° |
| 2026-04-27 02:10 | 21.03526 | -86.87037 | 30 ft | 13 kts | 319° |
| 2026-04-27 02:10 | 21.03564 | -86.87024 | 29 ft | 4 kts | 36° |
| 2026-04-27 02:10 | 21.03594 | -86.87002 | 29 ft | 4 kts | 33° |
| 2026-04-27 02:10 | 21.03598 | -86.87000 | 29 ft | 1 kts | 32° |
| 2026-04-27 02:11 | 21.03606 | -86.86994 | 29 ft | 0 kts | 33° |
| 2026-04-27 02:11 | 21.03608 | -86.86993 | 29 ft | 0 kts | 33° |